<?xml version="1.0" encoding="UTF-8" standalone="no" ?>
<gpx xmlns="http://www.topografix.com/GPX/1/1" xmlns:xsi="http://www.w3.org/2001/XMLSchema-instance" xsi:schemaLocation="http://www.topografix.com/GPX/1/1 http://www.topografix.com/GPX/1/1/gpx.xsd" version="1.1" creator="VisuGPX - https://www.visugpx.com">
  <metadata>
    <name>Rando LN</name>
  </metadata>
  <trk>
    <name><![CDATA[Rocamadour]]></name>
    <extensions>
      <line xmlns="http://www.topografix.com/GPX/gpx_style/0/2">
        <color>00fbff</color>
        <width>4</width>
      </line>
    </extensions>
    <trkseg>
      <trkpt lat="44.86585" lon="1.49724">
        <ele>96.6</ele>
      </trkpt>
      <trkpt lat="44.86585" lon="1.49724">
        <ele>96.6</ele>
      </trkpt>
      <trkpt lat="44.86585" lon="1.49724">
        <ele>96.6</ele>
      </trkpt>
      <trkpt lat="44.86585" lon="1.49724">
        <ele>96.6</ele>
      </trkpt>
      <trkpt lat="44.86585" lon="1.49724">
        <ele>96.6</ele>
      </trkpt>
      <trkpt lat="44.86585" lon="1.49724">
        <ele>96.6</ele>
      </trkpt>
      <trkpt lat="44.86585" lon="1.49724">
        <ele>96.6</ele>
      </trkpt>
      <trkpt lat="44.86594" lon="1.49798">
        <ele>95.4</ele>
      </trkpt>
      <trkpt lat="44.86598" lon="1.49862">
        <ele>100.2</ele>
      </trkpt>
      <trkpt lat="44.86592" lon="1.50028">
        <ele>114.6</ele>
      </trkpt>
      <trkpt lat="44.86586" lon="1.50061">
        <ele>112.045</ele>
        <time>2015-08-04T14:10:15Z</time>
      </trkpt>
      <trkpt lat="44.86549" lon="1.50088">
        <ele>108.097</ele>
        <time>2015-08-04T14:10:35Z</time>
      </trkpt>
      <trkpt lat="44.86518" lon="1.50131">
        <ele>108.664</ele>
        <time>2015-08-04T14:10:55Z</time>
      </trkpt>
      <trkpt lat="44.86501" lon="1.50204">
        <ele>113.206</ele>
        <time>2015-08-04T14:11:15Z</time>
      </trkpt>
      <trkpt lat="44.8648" lon="1.50228">
        <ele>119.216</ele>
        <time>2015-08-04T14:11:35Z</time>
      </trkpt>
      <trkpt lat="44.8645" lon="1.50231">
        <ele>123.508</ele>
        <time>2015-08-04T14:11:55Z</time>
      </trkpt>
      <trkpt lat="44.86361" lon="1.50167">
        <ele>120.072</ele>
        <time>2015-08-04T14:12:15Z</time>
      </trkpt>
      <trkpt lat="44.8631" lon="1.50144">
        <ele>118.367</ele>
        <time>2015-08-04T14:12:35Z</time>
      </trkpt>
      <trkpt lat="44.86256" lon="1.50165">
        <ele>116.187</ele>
        <time>2015-08-04T14:12:55Z</time>
      </trkpt>
      <trkpt lat="44.86228" lon="1.5021">
        <ele>114.769</ele>
        <time>2015-08-04T14:13:15Z</time>
      </trkpt>
      <trkpt lat="44.86217" lon="1.50283">
        <ele>116.691</ele>
        <time>2015-08-04T14:13:35Z</time>
      </trkpt>
      <trkpt lat="44.8624" lon="1.50317">
        <ele>121.022</ele>
        <time>2015-08-04T14:13:55Z</time>
      </trkpt>
      <trkpt lat="44.86323" lon="1.50323">
        <ele>128.978</ele>
        <time>2015-08-04T14:14:15Z</time>
      </trkpt>
      <trkpt lat="44.86363" lon="1.50337">
        <ele>132.74</ele>
        <time>2015-08-04T14:14:35Z</time>
      </trkpt>
      <trkpt lat="44.86318" lon="1.5039">
        <ele>138.649</ele>
        <time>2015-08-04T14:14:55Z</time>
      </trkpt>
      <trkpt lat="44.863" lon="1.50423">
        <ele>142.602</ele>
        <time>2015-08-04T14:15:15Z</time>
      </trkpt>
      <trkpt lat="44.86261" lon="1.50467">
        <ele>145.222</ele>
        <time>2015-08-04T14:15:35Z</time>
      </trkpt>
      <trkpt lat="44.8616" lon="1.50644">
        <ele>145.908</ele>
        <time>2020-03-06T18:42:37Z</time>
      </trkpt>
      <trkpt lat="44.8615" lon="1.50709">
        <ele>149.84</ele>
        <time>2015-08-04T14:17:15Z</time>
      </trkpt>
      <trkpt lat="44.86161" lon="1.50871">
        <ele>161.275</ele>
        <time>2015-08-04T14:17:35Z</time>
      </trkpt>
      <trkpt lat="44.8615" lon="1.50921">
        <ele>162.285</ele>
        <time>2015-08-04T14:17:55Z</time>
      </trkpt>
      <trkpt lat="44.86097" lon="1.51014">
        <ele>160.757</ele>
        <time>2015-08-04T14:18:15Z</time>
      </trkpt>
      <trkpt lat="44.86064" lon="1.51094">
        <ele>158.669</ele>
        <time>2015-08-04T14:18:35Z</time>
      </trkpt>
      <trkpt lat="44.86049" lon="1.51246">
        <ele>151.23</ele>
        <time>2015-08-04T14:18:55Z</time>
      </trkpt>
      <trkpt lat="44.85997" lon="1.5133">
        <ele>155.426</ele>
        <time>2015-08-04T14:19:15Z</time>
      </trkpt>
      <trkpt lat="44.85931" lon="1.51443">
        <ele>157.478</ele>
        <time>2015-08-04T14:19:35Z</time>
      </trkpt>
      <trkpt lat="44.85912" lon="1.51429">
        <ele>153.795</ele>
        <time>2015-08-04T14:19:55Z</time>
      </trkpt>
      <trkpt lat="44.85892" lon="1.51443">
        <ele>154.849</ele>
        <time>2015-08-04T14:20:15Z</time>
      </trkpt>
      <trkpt lat="44.85806" lon="1.51409">
        <ele>140.523</ele>
        <time>2015-08-04T14:20:35Z</time>
      </trkpt>
      <trkpt lat="44.85725" lon="1.51362">
        <ele>135.008</ele>
        <time>2015-08-04T14:20:55Z</time>
      </trkpt>
      <trkpt lat="44.85704" lon="1.51361">
        <ele>135.055</ele>
        <time>2015-08-04T14:21:15Z</time>
      </trkpt>
      <trkpt lat="44.85696" lon="1.51428">
        <ele>136.06</ele>
        <time>2015-08-04T14:21:35Z</time>
      </trkpt>
      <trkpt lat="44.85675" lon="1.51471">
        <ele>135.38</ele>
        <time>2015-08-04T14:21:55Z</time>
      </trkpt>
      <trkpt lat="44.85669" lon="1.51492">
        <ele>135.112</ele>
        <time>2020-03-06T18:47:57Z</time>
      </trkpt>
      <trkpt lat="44.85595" lon="1.51457">
        <ele>136.074</ele>
        <time>2020-03-06T18:48:17Z</time>
      </trkpt>
      <trkpt lat="44.85562" lon="1.51489">
        <ele>134.965</ele>
        <time>2020-03-06T18:48:37Z</time>
      </trkpt>
      <trkpt lat="44.85562" lon="1.51542">
        <ele>136.091</ele>
        <time>2015-08-04T14:22:55Z</time>
      </trkpt>
      <trkpt lat="44.8555" lon="1.5155">
        <ele>135.583</ele>
        <time>2015-08-04T14:23:15Z</time>
      </trkpt>
      <trkpt lat="44.85527" lon="1.51744">
        <ele>132.082</ele>
        <time>2015-08-04T14:23:35Z</time>
      </trkpt>
      <trkpt lat="44.85519" lon="1.5177">
        <ele>131.643</ele>
        <time>2015-08-04T14:23:55Z</time>
      </trkpt>
      <trkpt lat="44.85516" lon="1.51861">
        <ele>133.417</ele>
        <time>2015-08-04T14:24:15Z</time>
      </trkpt>
      <trkpt lat="44.85526" lon="1.51904">
        <ele>134.408</ele>
        <time>2015-08-04T14:24:35Z</time>
      </trkpt>
      <trkpt lat="44.85529" lon="1.51955">
        <ele>134.784</ele>
        <time>2015-08-04T14:24:55Z</time>
      </trkpt>
      <trkpt lat="44.85512" lon="1.52003">
        <ele>131.279</ele>
        <time>2020-03-06T18:51:17Z</time>
      </trkpt>
      <trkpt lat="44.85512" lon="1.52089">
        <ele>126.819</ele>
        <time>2020-03-06T18:51:37Z</time>
      </trkpt>
      <trkpt lat="44.85532" lon="1.52103">
        <ele>127.941</ele>
        <time>2020-03-06T18:51:57Z</time>
      </trkpt>
      <trkpt lat="44.85532" lon="1.5211">
        <ele>127.643</ele>
        <time>2020-03-06T18:52:17Z</time>
      </trkpt>
      <trkpt lat="44.85505" lon="1.52113">
        <ele>123.544</ele>
        <time>2020-03-06T18:52:37Z</time>
      </trkpt>
      <trkpt lat="44.85484" lon="1.52101">
        <ele>122.72</ele>
        <time>2020-03-06T18:52:57Z</time>
      </trkpt>
      <trkpt lat="44.85469" lon="1.52146">
        <ele>109.192</ele>
        <time>2020-03-06T18:53:17Z</time>
      </trkpt>
      <trkpt lat="44.85439" lon="1.52183">
        <ele>101.473</ele>
        <time>2015-08-04T14:26:35Z</time>
      </trkpt>
      <trkpt lat="44.85439" lon="1.52183">
        <ele>101.473</ele>
        <time>2015-08-04T14:26:35Z</time>
      </trkpt>
      <trkpt lat="44.854" lon="1.52138">
        <ele>104.885</ele>
        <time>2015-08-04T14:26:55Z</time>
      </trkpt>
      <trkpt lat="44.85379" lon="1.52152">
        <ele>103.713</ele>
        <time>2015-08-04T14:27:15Z</time>
      </trkpt>
      <trkpt lat="44.8538" lon="1.52203">
        <ele>101.408</ele>
        <time>2015-08-04T14:27:35Z</time>
      </trkpt>
      <trkpt lat="44.85147" lon="1.52696">
        <ele>106.993</ele>
        <time>2015-08-04T14:27:55Z</time>
      </trkpt>
      <trkpt lat="44.85002" lon="1.52942">
        <ele>116.038</ele>
        <time>2015-08-04T14:28:15Z</time>
      </trkpt>
      <trkpt lat="44.84852" lon="1.53132">
        <ele>121.368</ele>
        <time>2015-08-04T14:28:35Z</time>
      </trkpt>
      <trkpt lat="44.84837" lon="1.53283">
        <ele>132.43</ele>
        <time>2015-08-04T14:28:55Z</time>
      </trkpt>
      <trkpt lat="44.84862" lon="1.53349">
        <ele>130.512</ele>
        <time>2015-08-04T14:29:15Z</time>
      </trkpt>
      <trkpt lat="44.85001" lon="1.53551">
        <ele>117.773</ele>
        <time>2015-08-04T14:29:35Z</time>
      </trkpt>
      <trkpt lat="44.85016" lon="1.53594">
        <ele>117.279</ele>
        <time>2015-08-04T14:29:55Z</time>
      </trkpt>
      <trkpt lat="44.85035" lon="1.53617">
        <ele>117.471</ele>
        <time>2015-08-04T14:30:15Z</time>
      </trkpt>
      <trkpt lat="44.85097" lon="1.53635">
        <ele>117.633</ele>
        <time>2015-08-04T14:30:35Z</time>
      </trkpt>
      <trkpt lat="44.85206" lon="1.53738">
        <ele>114.923</ele>
        <time>2015-08-04T14:30:55Z</time>
      </trkpt>
      <trkpt lat="44.85251" lon="1.53857">
        <ele>116.915</ele>
        <time>2015-08-04T14:31:15Z</time>
      </trkpt>
      <trkpt lat="44.85312" lon="1.53947">
        <ele>118.108</ele>
        <time>2015-08-04T14:31:35Z</time>
      </trkpt>
      <trkpt lat="44.85263" lon="1.54022">
        <ele>120.949</ele>
        <time>2015-08-04T14:31:55Z</time>
      </trkpt>
      <trkpt lat="44.85233" lon="1.54044">
        <ele>121.024</ele>
        <time>2015-08-04T14:32:15Z</time>
      </trkpt>
      <trkpt lat="44.85166" lon="1.5403">
        <ele>122.224</ele>
        <time>2015-08-04T14:32:35Z</time>
      </trkpt>
      <trkpt lat="44.8509" lon="1.53986">
        <ele>131.916</ele>
        <time>2015-08-04T14:32:55Z</time>
      </trkpt>
      <trkpt lat="44.85012" lon="1.54109">
        <ele>150.498</ele>
        <time>2015-08-04T14:33:15Z</time>
      </trkpt>
      <trkpt lat="44.84992" lon="1.54164">
        <ele>156.479</ele>
        <time>2015-08-04T14:33:35Z</time>
      </trkpt>
      <trkpt lat="44.84977" lon="1.54257">
        <ele>163.885</ele>
        <time>2015-08-04T14:33:55Z</time>
      </trkpt>
      <trkpt lat="44.84963" lon="1.54288">
        <ele>166.627</ele>
        <time>2015-08-04T14:34:15Z</time>
      </trkpt>
      <trkpt lat="44.84889" lon="1.54378">
        <ele>167.652</ele>
        <time>2015-08-04T14:34:35Z</time>
      </trkpt>
      <trkpt lat="44.84837" lon="1.54384">
        <ele>166.853</ele>
        <time>2015-08-04T14:34:55Z</time>
      </trkpt>
      <trkpt lat="44.8479" lon="1.54408">
        <ele>167.208</ele>
        <time>2015-08-04T14:35:15Z</time>
      </trkpt>
      <trkpt lat="44.84639" lon="1.54459">
        <ele>163.508</ele>
        <time>2015-08-04T14:35:35Z</time>
      </trkpt>
      <trkpt lat="44.84615" lon="1.54439">
        <ele>164.061</ele>
        <time>2015-08-04T14:35:55Z</time>
      </trkpt>
      <trkpt lat="44.84591" lon="1.54413">
        <ele>165.336</ele>
        <time>2015-08-04T14:36:15Z</time>
      </trkpt>
      <trkpt lat="44.845" lon="1.546">
        <ele>156.496</ele>
        <time>2015-08-04T14:36:35Z</time>
      </trkpt>
      <trkpt lat="44.84443" lon="1.54756">
        <ele>157.298</ele>
        <time>2015-08-04T14:36:55Z</time>
      </trkpt>
      <trkpt lat="44.84454" lon="1.54894">
        <ele>148.03</ele>
        <time>2015-08-04T14:37:15Z</time>
      </trkpt>
      <trkpt lat="44.84433" lon="1.54866">
        <ele>147.641</ele>
        <time>2015-08-04T14:37:35Z</time>
      </trkpt>
      <trkpt lat="44.84391" lon="1.54881">
        <ele>141.447</ele>
        <time>2015-08-04T14:37:55Z</time>
      </trkpt>
      <trkpt lat="44.84268" lon="1.54954">
        <ele>144.349</ele>
        <time>2015-08-04T14:38:15Z</time>
      </trkpt>
      <trkpt lat="44.84264" lon="1.54971">
        <ele>142.285</ele>
        <time>2015-08-04T14:38:35Z</time>
      </trkpt>
      <trkpt lat="44.84296" lon="1.55005">
        <ele>131.489</ele>
        <time>2015-08-04T14:38:55Z</time>
      </trkpt>
      <trkpt lat="44.84367" lon="1.55001">
        <ele>118.517</ele>
        <time>2015-08-04T14:39:15Z</time>
      </trkpt>
      <trkpt lat="44.84382" lon="1.5501">
        <ele>116.108</ele>
        <time>2015-08-04T14:39:35Z</time>
      </trkpt>
      <trkpt lat="44.84399" lon="1.54978">
        <ele>123.974</ele>
        <time>2015-08-04T14:39:55Z</time>
      </trkpt>
      <trkpt lat="44.84417" lon="1.54985">
        <ele>125.969</ele>
        <time>2015-08-04T14:40:15Z</time>
      </trkpt>
      <trkpt lat="44.84441" lon="1.55051">
        <ele>118.459</ele>
        <time>2015-08-04T14:40:35Z</time>
      </trkpt>
      <trkpt lat="44.84436" lon="1.55071">
        <ele>111.821</ele>
        <time>2015-08-04T14:40:55Z</time>
      </trkpt>
      <trkpt lat="44.84398" lon="1.55054">
        <ele>108.363</ele>
        <time>2015-08-04T14:41:15Z</time>
      </trkpt>
      <trkpt lat="44.8435" lon="1.55052">
        <ele>108.654</ele>
        <time>2015-08-04T14:41:35Z</time>
      </trkpt>
      <trkpt lat="44.84293" lon="1.55079">
        <ele>109.17</ele>
        <time>2015-08-04T14:41:55Z</time>
      </trkpt>
      <trkpt lat="44.84209" lon="1.55137">
        <ele>108.122</ele>
        <time>2015-08-04T14:42:15Z</time>
      </trkpt>
      <trkpt lat="44.8431" lon="1.55185">
        <ele>99.591</ele>
        <time>2015-08-04T14:42:35Z</time>
      </trkpt>
      <trkpt lat="44.84306" lon="1.5523">
        <ele>105.781</ele>
        <time>2015-08-04T14:42:55Z</time>
      </trkpt>
      <trkpt lat="44.84229" lon="1.55279">
        <ele>108.119</ele>
        <time>2015-08-04T14:43:15Z</time>
      </trkpt>
      <trkpt lat="44.84202" lon="1.55305">
        <ele>108.008</ele>
        <time>2015-08-04T14:43:35Z</time>
      </trkpt>
      <trkpt lat="44.84194" lon="1.55363">
        <ele>116.195</ele>
        <time>2015-08-04T14:43:55Z</time>
      </trkpt>
      <trkpt lat="44.84182" lon="1.55373">
        <ele>114.19</ele>
        <time>2015-08-04T14:44:15Z</time>
      </trkpt>
      <trkpt lat="44.84133" lon="1.55382">
        <ele>107.52</ele>
        <time>2015-08-04T14:44:35Z</time>
      </trkpt>
      <trkpt lat="44.84068" lon="1.5537">
        <ele>107.162</ele>
        <time>2015-08-04T14:44:55Z</time>
      </trkpt>
      <trkpt lat="44.8403" lon="1.55401">
        <ele>114.364</ele>
        <time>2015-08-04T14:45:15Z</time>
      </trkpt>
      <trkpt lat="44.83963" lon="1.55426">
        <ele>108.695</ele>
        <time>2015-08-04T14:45:35Z</time>
      </trkpt>
      <trkpt lat="44.8393" lon="1.55448">
        <ele>110.331</ele>
        <time>2015-08-04T14:45:55Z</time>
      </trkpt>
      <trkpt lat="44.83889" lon="1.55458">
        <ele>110.573</ele>
        <time>2015-08-04T14:46:15Z</time>
      </trkpt>
      <trkpt lat="44.83865" lon="1.55453">
        <ele>109.991</ele>
        <time>2015-08-04T14:46:35Z</time>
      </trkpt>
      <trkpt lat="44.83829" lon="1.55433">
        <ele>103.281</ele>
        <time>2015-08-04T14:46:55Z</time>
      </trkpt>
      <trkpt lat="44.83782" lon="1.55342">
        <ele>102.119</ele>
        <time>2015-08-04T14:47:15Z</time>
      </trkpt>
      <trkpt lat="44.8378" lon="1.55256">
        <ele>98.008</ele>
        <time>2015-08-04T14:47:35Z</time>
      </trkpt>
      <trkpt lat="44.83773" lon="1.55211">
        <ele>98.025</ele>
        <time>2015-08-04T14:47:55Z</time>
      </trkpt>
      <trkpt lat="44.83732" lon="1.55085">
        <ele>99.68</ele>
        <time>2015-08-04T14:48:15Z</time>
      </trkpt>
      <trkpt lat="44.83692" lon="1.55012">
        <ele>100.26</ele>
        <time>2015-08-04T14:48:35Z</time>
      </trkpt>
      <trkpt lat="44.83678" lon="1.54965">
        <ele>102.032</ele>
        <time>2015-08-04T14:48:55Z</time>
      </trkpt>
      <trkpt lat="44.83645" lon="1.54902">
        <ele>102.964</ele>
        <time>2015-08-04T14:49:15Z</time>
      </trkpt>
      <trkpt lat="44.83628" lon="1.54892">
        <ele>102.615</ele>
        <time>2015-08-04T14:49:35Z</time>
      </trkpt>
      <trkpt lat="44.83561" lon="1.54881">
        <ele>101.141</ele>
        <time>2015-08-04T14:49:55Z</time>
      </trkpt>
      <trkpt lat="44.8354" lon="1.54865">
        <ele>101.023</ele>
        <time>2015-08-04T14:50:15Z</time>
      </trkpt>
      <trkpt lat="44.83493" lon="1.54816">
        <ele>101.839</ele>
        <time>2015-08-04T14:50:35Z</time>
      </trkpt>
      <trkpt lat="44.83451" lon="1.5479">
        <ele>104.401</ele>
        <time>2015-08-04T14:50:55Z</time>
      </trkpt>
      <trkpt lat="44.83436" lon="1.54801">
        <ele>103.521</ele>
        <time>2015-08-04T14:51:15Z</time>
      </trkpt>
      <trkpt lat="44.8343" lon="1.54864">
        <ele>105.908</ele>
        <time>2015-08-04T14:51:35Z</time>
      </trkpt>
      <trkpt lat="44.83416" lon="1.54876">
        <ele>108.729</ele>
        <time>2015-08-04T14:51:55Z</time>
      </trkpt>
      <trkpt lat="44.83369" lon="1.54865">
        <ele>111.134</ele>
        <time>2015-08-04T14:52:15Z</time>
      </trkpt>
      <trkpt lat="44.8334" lon="1.5487">
        <ele>109.084</ele>
        <time>2015-08-04T14:52:35Z</time>
      </trkpt>
      <trkpt lat="44.83315" lon="1.54886">
        <ele>108.196</ele>
        <time>2015-08-04T14:52:55Z</time>
      </trkpt>
      <trkpt lat="44.83294" lon="1.54913">
        <ele>109.948</ele>
        <time>2015-08-04T14:53:15Z</time>
      </trkpt>
      <trkpt lat="44.83251" lon="1.55001">
        <ele>111.359</ele>
        <time>2015-08-04T14:53:35Z</time>
      </trkpt>
      <trkpt lat="44.832" lon="1.55085">
        <ele>110.955</ele>
        <time>2015-08-04T14:53:55Z</time>
      </trkpt>
      <trkpt lat="44.83129" lon="1.55174">
        <ele>113.247</ele>
        <time>2015-08-04T14:54:15Z</time>
      </trkpt>
      <trkpt lat="44.83092" lon="1.55244">
        <ele>119.981</ele>
        <time>2015-08-04T14:54:35Z</time>
      </trkpt>
      <trkpt lat="44.83065" lon="1.55274">
        <ele>122.061</ele>
        <time>2015-08-04T14:54:55Z</time>
      </trkpt>
      <trkpt lat="44.83035" lon="1.55287">
        <ele>119.317</ele>
        <time>2015-08-04T14:55:15Z</time>
      </trkpt>
      <trkpt lat="44.82992" lon="1.55276">
        <ele>118.308</ele>
        <time>2015-08-04T14:55:35Z</time>
      </trkpt>
      <trkpt lat="44.82922" lon="1.55247">
        <ele>120.094</ele>
        <time>2015-08-04T14:55:55Z</time>
      </trkpt>
      <trkpt lat="44.82903" lon="1.55227">
        <ele>121.359</ele>
        <time>2015-08-04T14:56:15Z</time>
      </trkpt>
      <trkpt lat="44.82885" lon="1.55196">
        <ele>122.589</ele>
        <time>2015-08-04T14:56:35Z</time>
      </trkpt>
      <trkpt lat="44.82869" lon="1.55112">
        <ele>120.941</ele>
        <time>2015-08-04T14:56:55Z</time>
      </trkpt>
      <trkpt lat="44.8285" lon="1.55058">
        <ele>117.863</ele>
        <time>2015-08-04T14:57:15Z</time>
      </trkpt>
      <trkpt lat="44.82834" lon="1.54993">
        <ele>109.954</ele>
        <time>2015-08-04T14:57:35Z</time>
      </trkpt>
      <trkpt lat="44.82826" lon="1.54982">
        <ele>108.24</ele>
        <time>2015-08-04T14:57:55Z</time>
      </trkpt>
      <trkpt lat="44.82804" lon="1.54988">
        <ele>108.162</ele>
        <time>2015-08-04T14:58:15Z</time>
      </trkpt>
      <trkpt lat="44.82771" lon="1.5501">
        <ele>109.758</ele>
        <time>2015-08-04T14:58:35Z</time>
      </trkpt>
      <trkpt lat="44.82739" lon="1.55037">
        <ele>112.652</ele>
        <time>2015-08-04T14:58:55Z</time>
      </trkpt>
      <trkpt lat="44.8272" lon="1.55045">
        <ele>111.217</ele>
        <time>2015-08-04T14:59:15Z</time>
      </trkpt>
      <trkpt lat="44.82701" lon="1.55066">
        <ele>111.008</ele>
        <time>2015-08-04T14:59:35Z</time>
      </trkpt>
      <trkpt lat="44.82677" lon="1.55051">
        <ele>107.841</ele>
        <time>2015-08-04T14:59:55Z</time>
      </trkpt>
      <trkpt lat="44.82632" lon="1.55068">
        <ele>113.466</ele>
        <time>2015-08-04T15:00:15Z</time>
      </trkpt>
      <trkpt lat="44.82577" lon="1.55076">
        <ele>112.876</ele>
        <time>2015-08-04T15:00:35Z</time>
      </trkpt>
      <trkpt lat="44.82507" lon="1.55078">
        <ele>120.148</ele>
        <time>2015-08-04T15:00:55Z</time>
      </trkpt>
      <trkpt lat="44.82492" lon="1.55067">
        <ele>122.12</ele>
        <time>2015-08-04T15:01:15Z</time>
      </trkpt>
      <trkpt lat="44.82462" lon="1.55014">
        <ele>117.491</ele>
        <time>2015-08-04T15:01:35Z</time>
      </trkpt>
      <trkpt lat="44.82443" lon="1.54989">
        <ele>115.317</ele>
        <time>2015-08-04T15:01:55Z</time>
      </trkpt>
      <trkpt lat="44.82419" lon="1.5494">
        <ele>114.189</ele>
        <time>2015-08-04T15:02:15Z</time>
      </trkpt>
      <trkpt lat="44.8236" lon="1.54848">
        <ele>112.534</ele>
        <time>2015-08-04T15:02:35Z</time>
      </trkpt>
      <trkpt lat="44.82339" lon="1.54827">
        <ele>113.255</ele>
        <time>2015-08-04T15:02:55Z</time>
      </trkpt>
      <trkpt lat="44.82295" lon="1.54799">
        <ele>116.01</ele>
        <time>2015-08-04T15:03:15Z</time>
      </trkpt>
      <trkpt lat="44.82261" lon="1.54763">
        <ele>114.008</ele>
        <time>2015-08-04T15:03:35Z</time>
      </trkpt>
      <trkpt lat="44.82245" lon="1.54755">
        <ele>112.879</ele>
        <time>2015-08-04T15:03:55Z</time>
      </trkpt>
      <trkpt lat="44.82224" lon="1.54755">
        <ele>112.674</ele>
        <time>2015-08-04T15:04:15Z</time>
      </trkpt>
      <trkpt lat="44.82198" lon="1.54771">
        <ele>110.864</ele>
        <time>2015-08-04T15:04:35Z</time>
      </trkpt>
      <trkpt lat="44.82176" lon="1.54806">
        <ele>109.386</ele>
        <time>2015-08-04T15:04:55Z</time>
      </trkpt>
      <trkpt lat="44.8216" lon="1.54912">
        <ele>108.568</ele>
        <time>2015-08-04T15:05:15Z</time>
      </trkpt>
      <trkpt lat="44.82153" lon="1.5504">
        <ele>118.699</ele>
        <time>2015-08-04T15:05:35Z</time>
      </trkpt>
      <trkpt lat="44.82101" lon="1.55184">
        <ele>114.185</ele>
        <time>2015-08-04T15:05:55Z</time>
      </trkpt>
      <trkpt lat="44.82004" lon="1.55304">
        <ele>122.147</ele>
        <time>2015-08-04T15:06:15Z</time>
      </trkpt>
      <trkpt lat="44.81926" lon="1.55319">
        <ele>114.899</ele>
        <time>2015-08-04T15:06:35Z</time>
      </trkpt>
      <trkpt lat="44.81848" lon="1.55341">
        <ele>112.007</ele>
        <time>2015-08-04T15:06:55Z</time>
      </trkpt>
      <trkpt lat="44.8182" lon="1.55361">
        <ele>110.027</ele>
        <time>2015-08-04T15:07:15Z</time>
      </trkpt>
      <trkpt lat="44.81819" lon="1.55402">
        <ele>111.408</ele>
        <time>2015-08-04T15:07:35Z</time>
      </trkpt>
      <trkpt lat="44.81807" lon="1.5545">
        <ele>121.295</ele>
        <time>2015-08-04T15:07:55Z</time>
      </trkpt>
      <trkpt lat="44.81761" lon="1.55485">
        <ele>119.04</ele>
        <time>2015-08-04T15:08:15Z</time>
      </trkpt>
      <trkpt lat="44.81707" lon="1.55516">
        <ele>119.47</ele>
        <time>2015-08-04T15:08:35Z</time>
      </trkpt>
      <trkpt lat="44.81676" lon="1.55525">
        <ele>118.072</ele>
        <time>2015-08-04T15:08:55Z</time>
      </trkpt>
      <trkpt lat="44.81624" lon="1.55527">
        <ele>120.424</ele>
        <time>2015-08-04T15:09:15Z</time>
      </trkpt>
      <trkpt lat="44.81582" lon="1.55512">
        <ele>117.815</ele>
        <time>2015-08-04T15:09:35Z</time>
      </trkpt>
      <trkpt lat="44.81563" lon="1.55489">
        <ele>112.721</ele>
        <time>2015-08-04T15:09:55Z</time>
      </trkpt>
      <trkpt lat="44.81543" lon="1.55476">
        <ele>113.063</ele>
        <time>2015-08-04T15:10:15Z</time>
      </trkpt>
      <trkpt lat="44.81496" lon="1.55474">
        <ele>112.765</ele>
        <time>2015-08-04T15:10:35Z</time>
      </trkpt>
      <trkpt lat="44.81444" lon="1.55507">
        <ele>109.568</ele>
        <time>2015-08-04T15:10:55Z</time>
      </trkpt>
      <trkpt lat="44.81421" lon="1.55552">
        <ele>112.814</ele>
        <time>2015-08-04T15:11:15Z</time>
      </trkpt>
      <trkpt lat="44.81381" lon="1.55764">
        <ele>111.008</ele>
        <time>2015-08-04T15:11:35Z</time>
      </trkpt>
      <trkpt lat="44.81333" lon="1.55894">
        <ele>108.512</ele>
        <time>2015-08-04T15:11:55Z</time>
      </trkpt>
      <trkpt lat="44.81296" lon="1.55969">
        <ele>112.277</ele>
        <time>2015-08-04T15:12:15Z</time>
      </trkpt>
      <trkpt lat="44.81217" lon="1.56043">
        <ele>113.757</ele>
        <time>2015-08-04T15:12:35Z</time>
      </trkpt>
      <trkpt lat="44.81188" lon="1.56078">
        <ele>117.659</ele>
        <time>2015-08-04T15:12:55Z</time>
      </trkpt>
      <trkpt lat="44.81166" lon="1.56087">
        <ele>119.481</ele>
        <time>2015-08-04T15:13:15Z</time>
      </trkpt>
      <trkpt lat="44.81149" lon="1.56077">
        <ele>118.212</ele>
        <time>2015-08-04T15:13:35Z</time>
      </trkpt>
      <trkpt lat="44.8111" lon="1.56108">
        <ele>120.218</ele>
        <time>2015-08-04T15:13:55Z</time>
      </trkpt>
      <trkpt lat="44.81082" lon="1.56099">
        <ele>117.56</ele>
        <time>2015-08-04T15:14:15Z</time>
      </trkpt>
      <trkpt lat="44.80976" lon="1.55983">
        <ele>112.473</ele>
        <time>2015-08-04T15:14:35Z</time>
      </trkpt>
      <trkpt lat="44.80948" lon="1.55972">
        <ele>113.685</ele>
        <time>2015-08-04T15:14:55Z</time>
      </trkpt>
      <trkpt lat="44.80919" lon="1.55985">
        <ele>114.113</ele>
        <time>2015-08-04T15:15:15Z</time>
      </trkpt>
      <trkpt lat="44.80904" lon="1.56024">
        <ele>114.408</ele>
        <time>2015-08-04T15:15:35Z</time>
      </trkpt>
      <trkpt lat="44.80887" lon="1.56108">
        <ele>113.763</ele>
        <time>2015-08-04T15:15:55Z</time>
      </trkpt>
      <trkpt lat="44.80898" lon="1.56211">
        <ele>123.228</ele>
        <time>2015-08-04T15:16:15Z</time>
      </trkpt>
      <trkpt lat="44.80891" lon="1.56267">
        <ele>119.998</ele>
        <time>2015-08-04T15:16:35Z</time>
      </trkpt>
      <trkpt lat="44.80875" lon="1.56311">
        <ele>124.54</ele>
        <time>2015-08-04T15:16:55Z</time>
      </trkpt>
      <trkpt lat="44.8083" lon="1.56352">
        <ele>132.882</ele>
        <time>2015-08-04T15:17:15Z</time>
      </trkpt>
      <trkpt lat="44.80797" lon="1.56351">
        <ele>132.463</ele>
        <time>2015-08-04T15:17:35Z</time>
      </trkpt>
      <trkpt lat="44.80746" lon="1.56315">
        <ele>125.539</ele>
        <time>2015-08-04T15:17:55Z</time>
      </trkpt>
      <trkpt lat="44.807" lon="1.56232">
        <ele>126.021</ele>
        <time>2015-08-04T15:18:15Z</time>
      </trkpt>
      <trkpt lat="44.80654" lon="1.56063">
        <ele>122.139</ele>
        <time>2015-08-04T15:18:35Z</time>
      </trkpt>
      <trkpt lat="44.80607" lon="1.56004">
        <ele>117.101</ele>
        <time>2015-08-04T15:18:55Z</time>
      </trkpt>
      <trkpt lat="44.8055" lon="1.55904">
        <ele>110.721</ele>
        <time>2015-08-04T15:19:15Z</time>
      </trkpt>
      <trkpt lat="44.80454" lon="1.5578">
        <ele>108.208</ele>
        <time>2015-08-04T15:19:35Z</time>
      </trkpt>
      <trkpt lat="44.80393" lon="1.5575">
        <ele>110.099</ele>
        <time>2015-08-04T15:19:55Z</time>
      </trkpt>
      <trkpt lat="44.80297" lon="1.55829">
        <ele>117.654</ele>
        <time>2015-08-04T15:20:15Z</time>
      </trkpt>
      <trkpt lat="44.80115" lon="1.55963">
        <ele>114.914</ele>
        <time>2015-08-04T15:20:35Z</time>
      </trkpt>
      <trkpt lat="44.80053" lon="1.55986">
        <ele>112.716</ele>
        <time>2015-08-04T15:20:55Z</time>
      </trkpt>
      <trkpt lat="44.80037" lon="1.56008">
        <ele>111.988</ele>
        <time>2015-08-04T15:21:15Z</time>
      </trkpt>
      <trkpt lat="44.8001" lon="1.56016">
        <ele>109.539</ele>
        <time>2015-08-04T15:21:35Z</time>
      </trkpt>
      <trkpt lat="44.79988" lon="1.56071">
        <ele>110.725</ele>
        <time>2015-08-04T15:21:55Z</time>
      </trkpt>
      <trkpt lat="44.79966" lon="1.56088">
        <ele>110.097</ele>
        <time>2015-08-04T15:22:15Z</time>
      </trkpt>
      <trkpt lat="44.79924" lon="1.56018">
        <ele>107.064</ele>
        <time>2015-08-04T15:22:35Z</time>
      </trkpt>
      <trkpt lat="44.79906" lon="1.56029">
        <ele>107.806</ele>
        <time>2015-08-04T15:22:55Z</time>
      </trkpt>
      <trkpt lat="44.79881" lon="1.56067">
        <ele>110.716</ele>
        <time>2015-08-04T15:23:15Z</time>
      </trkpt>
      <trkpt lat="44.79833" lon="1.56124">
        <ele>112.308</ele>
        <time>2015-08-04T15:23:35Z</time>
      </trkpt>
      <trkpt lat="44.79798" lon="1.56147">
        <ele>114.212</ele>
        <time>2015-08-04T15:23:55Z</time>
      </trkpt>
      <trkpt lat="44.79742" lon="1.56247">
        <ele>113.627</ele>
        <time>2015-08-04T15:24:15Z</time>
      </trkpt>
      <trkpt lat="44.79739" lon="1.56285">
        <ele>116.457</ele>
        <time>2015-08-04T15:24:35Z</time>
      </trkpt>
      <trkpt lat="44.79707" lon="1.56347">
        <ele>119.069</ele>
        <time>2015-08-04T15:24:55Z</time>
      </trkpt>
      <trkpt lat="44.79642" lon="1.56436">
        <ele>122.511</ele>
        <time>2015-08-04T15:25:15Z</time>
      </trkpt>
      <trkpt lat="44.7961" lon="1.56458">
        <ele>119.282</ele>
        <time>2015-08-04T15:25:35Z</time>
      </trkpt>
      <trkpt lat="44.7959" lon="1.56487">
        <ele>118.388</ele>
        <time>2015-08-04T15:25:55Z</time>
      </trkpt>
      <trkpt lat="44.79574" lon="1.56522">
        <ele>120.48</ele>
        <time>2015-08-04T15:26:15Z</time>
      </trkpt>
      <trkpt lat="44.7955" lon="1.56558">
        <ele>122.952</ele>
        <time>2015-08-04T15:26:35Z</time>
      </trkpt>
      <trkpt lat="44.7953" lon="1.56575">
        <ele>122.253</ele>
        <time>2015-08-04T15:26:55Z</time>
      </trkpt>
      <trkpt lat="44.79489" lon="1.5659">
        <ele>120.208</ele>
        <time>2015-08-04T15:27:15Z</time>
      </trkpt>
      <trkpt lat="44.79469" lon="1.56624">
        <ele>121.808</ele>
        <time>2015-08-04T15:27:35Z</time>
      </trkpt>
      <trkpt lat="44.79464" lon="1.56652">
        <ele>122.911</ele>
        <time>2015-08-04T15:27:55Z</time>
      </trkpt>
      <trkpt lat="44.79472" lon="1.5669">
        <ele>124.276</ele>
        <time>2015-08-04T15:28:15Z</time>
      </trkpt>
      <trkpt lat="44.79583" lon="1.56823">
        <ele>140.376</ele>
        <time>2015-08-04T15:28:35Z</time>
      </trkpt>
      <trkpt lat="44.79599" lon="1.56901">
        <ele>140.368</ele>
        <time>2015-08-04T15:28:55Z</time>
      </trkpt>
      <trkpt lat="44.79592" lon="1.56942">
        <ele>136.25</ele>
        <time>2015-08-04T15:29:15Z</time>
      </trkpt>
      <trkpt lat="44.79588" lon="1.56976">
        <ele>138.181</ele>
        <time>2015-08-04T15:29:35Z</time>
      </trkpt>
      <trkpt lat="44.79523" lon="1.57063">
        <ele>128.167</ele>
        <time>2015-08-04T15:29:55Z</time>
      </trkpt>
      <trkpt lat="44.79468" lon="1.57143">
        <ele>128.089</ele>
        <time>2015-08-04T15:30:15Z</time>
      </trkpt>
      <trkpt lat="44.79422" lon="1.57194">
        <ele>129.167</ele>
        <time>2015-08-04T15:30:35Z</time>
      </trkpt>
      <trkpt lat="44.79407" lon="1.57206">
        <ele>127.181</ele>
        <time>2015-08-04T15:30:55Z</time>
      </trkpt>
      <trkpt lat="44.79372" lon="1.57265">
        <ele>125.119</ele>
        <time>2015-08-04T15:31:15Z</time>
      </trkpt>
      <trkpt lat="44.79366" lon="1.5729">
        <ele>126.708</ele>
        <time>2015-08-04T15:31:35Z</time>
      </trkpt>
      <trkpt lat="44.79335" lon="1.57353">
        <ele>122.172</ele>
        <time>2015-08-04T15:31:55Z</time>
      </trkpt>
      <trkpt lat="44.79323" lon="1.5742">
        <ele>124.857</ele>
        <time>2015-08-04T15:32:15Z</time>
      </trkpt>
      <trkpt lat="44.79202" lon="1.57605">
        <ele>128.787</ele>
        <time>2015-08-04T15:32:35Z</time>
      </trkpt>
      <trkpt lat="44.79181" lon="1.57665">
        <ele>132.049</ele>
        <time>2015-08-04T15:32:55Z</time>
      </trkpt>
      <trkpt lat="44.79159" lon="1.57778">
        <ele>138.061</ele>
        <time>2015-08-04T15:33:15Z</time>
      </trkpt>
      <trkpt lat="44.79143" lon="1.57811">
        <ele>137.112</ele>
        <time>2015-08-04T15:33:35Z</time>
      </trkpt>
      <trkpt lat="44.7913" lon="1.57857">
        <ele>134.828</ele>
        <time>2015-08-04T15:33:55Z</time>
      </trkpt>
      <trkpt lat="44.79133" lon="1.57934">
        <ele>135.43</ele>
        <time>2015-08-04T15:34:15Z</time>
      </trkpt>
      <trkpt lat="44.79142" lon="1.58014">
        <ele>135.561</ele>
        <time>2015-08-04T15:34:35Z</time>
      </trkpt>
      <trkpt lat="44.79141" lon="1.58096">
        <ele>130.321</ele>
        <time>2015-08-04T15:34:55Z</time>
      </trkpt>
      <trkpt lat="44.79165" lon="1.58226">
        <ele>128.213</ele>
        <time>2015-08-04T15:35:15Z</time>
      </trkpt>
      <trkpt lat="44.79188" lon="1.58242">
        <ele>134.708</ele>
        <time>2015-08-04T15:35:35Z</time>
      </trkpt>
      <trkpt lat="44.79192" lon="1.58263">
        <ele>137.072</ele>
        <time>2015-08-04T15:35:55Z</time>
      </trkpt>
      <trkpt lat="44.79174" lon="1.5831">
        <ele>134.747</ele>
        <time>2015-08-04T15:36:15Z</time>
      </trkpt>
      <trkpt lat="44.79169" lon="1.58348">
        <ele>135.797</ele>
        <time>2015-08-04T15:36:35Z</time>
      </trkpt>
      <trkpt lat="44.79177" lon="1.58435">
        <ele>137.389</ele>
        <time>2015-08-04T15:36:55Z</time>
      </trkpt>
      <trkpt lat="44.792" lon="1.58523">
        <ele>138.891</ele>
        <time>2015-08-04T15:37:15Z</time>
      </trkpt>
      <trkpt lat="44.79232" lon="1.58588">
        <ele>142.042</ele>
        <time>2015-08-04T15:37:35Z</time>
      </trkpt>
      <trkpt lat="44.79245" lon="1.5863">
        <ele>141.878</ele>
        <time>2015-08-04T15:37:55Z</time>
      </trkpt>
      <trkpt lat="44.7926" lon="1.58722">
        <ele>142.14</ele>
        <time>2015-08-04T15:38:15Z</time>
      </trkpt>
      <trkpt lat="44.79273" lon="1.58853">
        <ele>149.336</ele>
        <time>2015-08-04T15:38:35Z</time>
      </trkpt>
      <trkpt lat="44.79274" lon="1.58953">
        <ele>148.517</ele>
        <time>2015-08-04T15:38:55Z</time>
      </trkpt>
      <trkpt lat="44.79283" lon="1.59021">
        <ele>154.518</ele>
        <time>2015-08-04T15:39:15Z</time>
      </trkpt>
      <trkpt lat="44.79276" lon="1.59102">
        <ele>155.308</ele>
        <time>2015-08-04T15:39:35Z</time>
      </trkpt>
      <trkpt lat="44.79286" lon="1.59154">
        <ele>155.269</ele>
        <time>2015-08-04T15:39:55Z</time>
      </trkpt>
      <trkpt lat="44.79263" lon="1.59252">
        <ele>156.274</ele>
        <time>2015-08-04T15:40:15Z</time>
      </trkpt>
      <trkpt lat="44.79258" lon="1.59325">
        <ele>155.094</ele>
        <time>2015-08-04T15:40:35Z</time>
      </trkpt>
      <trkpt lat="44.79267" lon="1.59416">
        <ele>156.576</ele>
        <time>2015-08-04T15:40:55Z</time>
      </trkpt>
      <trkpt lat="44.79318" lon="1.59539">
        <ele>149.428</ele>
        <time>2015-08-04T15:41:15Z</time>
      </trkpt>
      <trkpt lat="44.79353" lon="1.59579">
        <ele>143.119</ele>
        <time>2015-08-04T15:41:35Z</time>
      </trkpt>
      <trkpt lat="44.79412" lon="1.59623">
        <ele>140.655</ele>
        <time>2015-08-04T15:41:55Z</time>
      </trkpt>
      <trkpt lat="44.79458" lon="1.59574">
        <ele>138.557</ele>
        <time>2015-08-04T15:42:15Z</time>
      </trkpt>
      <trkpt lat="44.79516" lon="1.59605">
        <ele>145.553</ele>
        <time>2015-08-04T15:42:35Z</time>
      </trkpt>
      <trkpt lat="44.79567" lon="1.59648">
        <ele>148.604</ele>
        <time>2015-08-04T15:42:55Z</time>
      </trkpt>
      <trkpt lat="44.79619" lon="1.59712">
        <ele>155.214</ele>
        <time>2015-08-04T15:43:15Z</time>
      </trkpt>
      <trkpt lat="44.79626" lon="1.59782">
        <ele>150.408</ele>
        <time>2015-08-04T15:43:35Z</time>
      </trkpt>
      <trkpt lat="44.79598" lon="1.59869">
        <ele>148.581</ele>
        <time>2015-08-04T15:43:55Z</time>
      </trkpt>
      <trkpt lat="44.79519" lon="1.59932">
        <ele>147.716</ele>
        <time>2015-08-04T15:44:15Z</time>
      </trkpt>
      <trkpt lat="44.79469" lon="1.59959">
        <ele>139.496</ele>
        <time>2015-08-04T15:44:35Z</time>
      </trkpt>
      <trkpt lat="44.79453" lon="1.5998">
        <ele>138.228</ele>
        <time>2015-08-04T15:44:55Z</time>
      </trkpt>
      <trkpt lat="44.79434" lon="1.60024">
        <ele>137.83</ele>
        <time>2015-08-04T15:45:15Z</time>
      </trkpt>
      <trkpt lat="44.79428" lon="1.60115">
        <ele>141.731</ele>
        <time>2015-08-04T15:45:35Z</time>
      </trkpt>
      <trkpt lat="44.79452" lon="1.6015">
        <ele>140.677</ele>
        <time>2015-08-04T15:45:55Z</time>
      </trkpt>
      <trkpt lat="44.79504" lon="1.60268">
        <ele>140.279</ele>
        <time>2015-08-04T15:46:15Z</time>
      </trkpt>
      <trkpt lat="44.79567" lon="1.60378">
        <ele>146.634</ele>
        <time>2015-08-04T15:46:35Z</time>
      </trkpt>
      <trkpt lat="44.79579" lon="1.60428">
        <ele>143.555</ele>
        <time>2015-08-04T15:46:55Z</time>
      </trkpt>
      <trkpt lat="44.79562" lon="1.60513">
        <ele>139.71</ele>
        <time>2015-08-04T15:47:15Z</time>
      </trkpt>
      <trkpt lat="44.79509" lon="1.60631">
        <ele>140.508</ele>
        <time>2015-08-04T15:47:35Z</time>
      </trkpt>
      <trkpt lat="44.79493" lon="1.60699">
        <ele>138.999</ele>
        <time>2015-08-04T15:47:55Z</time>
      </trkpt>
      <trkpt lat="44.79497" lon="1.60751">
        <ele>136.754</ele>
        <time>2015-08-04T15:48:15Z</time>
      </trkpt>
      <trkpt lat="44.79517" lon="1.60788">
        <ele>138.684</ele>
        <time>2015-08-04T15:48:35Z</time>
      </trkpt>
      <trkpt lat="44.79593" lon="1.60853">
        <ele>149.036</ele>
        <time>2015-08-04T15:48:55Z</time>
      </trkpt>
      <trkpt lat="44.79657" lon="1.60925">
        <ele>148.798</ele>
        <time>2015-08-04T15:49:15Z</time>
      </trkpt>
      <trkpt lat="44.79718" lon="1.61009">
        <ele>148.719</ele>
        <time>2015-08-04T15:49:35Z</time>
      </trkpt>
      <trkpt lat="44.79724" lon="1.61041">
        <ele>146.265</ele>
        <time>2015-08-04T15:49:55Z</time>
      </trkpt>
      <trkpt lat="44.79685" lon="1.61231">
        <ele>143.477</ele>
        <time>2015-08-04T15:50:15Z</time>
      </trkpt>
      <trkpt lat="44.79651" lon="1.61285">
        <ele>143.053</ele>
        <time>2015-08-04T15:50:35Z</time>
      </trkpt>
      <trkpt lat="44.79627" lon="1.61344">
        <ele>143.604</ele>
        <time>2015-08-04T15:50:55Z</time>
      </trkpt>
      <trkpt lat="44.79616" lon="1.61407">
        <ele>142.814</ele>
        <time>2015-08-04T15:51:15Z</time>
      </trkpt>
      <trkpt lat="44.79638" lon="1.61479">
        <ele>147.108</ele>
        <time>2015-08-04T15:51:35Z</time>
      </trkpt>
      <trkpt lat="44.7972" lon="1.61699">
        <ele>140.331</ele>
        <time>2015-08-04T15:51:55Z</time>
      </trkpt>
      <trkpt lat="44.79854" lon="1.61852">
        <ele>142.636</ele>
        <time>2015-08-04T15:52:15Z</time>
      </trkpt>
      <trkpt lat="44.79929" lon="1.61877">
        <ele>154.826</ele>
        <time>2015-08-04T15:52:35Z</time>
      </trkpt>
      <trkpt lat="44.79929" lon="1.61877">
        <ele>154.826</ele>
        <time>2015-08-04T15:52:35Z</time>
      </trkpt>
      <trkpt lat="44.79963" lon="1.61909">
        <ele>150.818</ele>
        <time>2015-08-04T15:52:55Z</time>
      </trkpt>
      <trkpt lat="44.79988" lon="1.61917">
        <ele>149.66</ele>
        <time>2015-08-04T15:53:15Z</time>
      </trkpt>
      <trkpt lat="44.80058" lon="1.61953">
        <ele>155.691</ele>
        <time>2015-08-04T15:53:35Z</time>
      </trkpt>
      <trkpt lat="44.80085" lon="1.62008">
        <ele>148.417</ele>
        <time>2015-08-04T15:53:55Z</time>
      </trkpt>
      <trkpt lat="44.80133" lon="1.62068">
        <ele>153.179</ele>
        <time>2015-08-04T15:54:15Z</time>
      </trkpt>
      <trkpt lat="44.80178" lon="1.62138">
        <ele>151.428</ele>
        <time>2015-08-04T15:54:35Z</time>
      </trkpt>
      <trkpt lat="44.80204" lon="1.62241">
        <ele>143.389</ele>
        <time>2015-08-04T15:54:55Z</time>
      </trkpt>
      <trkpt lat="44.80224" lon="1.62269">
        <ele>145.917</ele>
        <time>2015-08-04T15:55:15Z</time>
      </trkpt>
      <trkpt lat="44.80248" lon="1.62281">
        <ele>150.208</ele>
        <time>2015-08-04T15:55:35Z</time>
      </trkpt>
      <trkpt lat="44.80247" lon="1.62235">
        <ele>159</ele>
      </trkpt>
      <trkpt lat="44.80142" lon="1.61971">
        <ele>181.2</ele>
      </trkpt>
      <trkpt lat="44.80259" lon="1.62106">
        <ele>197.3</ele>
      </trkpt>
      <trkpt lat="44.80369" lon="1.62289">
        <ele>214.5</ele>
      </trkpt>
      <trkpt lat="44.80408" lon="1.62381">
        <ele>228.6</ele>
      </trkpt>
      <trkpt lat="44.80411" lon="1.62514">
        <ele>237.4</ele>
      </trkpt>
      <trkpt lat="44.80408" lon="1.62617">
        <ele>249.5</ele>
      </trkpt>
      <trkpt lat="44.80392" lon="1.62675">
        <ele>252.1</ele>
      </trkpt>
      <trkpt lat="44.80401" lon="1.62718">
        <ele>256</ele>
      </trkpt>
      <trkpt lat="44.80454" lon="1.62711">
        <ele>257.5</ele>
      </trkpt>
      <trkpt lat="44.80452" lon="1.62791">
        <ele>257.4</ele>
      </trkpt>
    </trkseg>
  </trk>
</gpx>